createdAt,value
2018-06-16T00:00:57.060Z,14.80
2018-06-16T00:03:25.706Z,14.90
2018-06-16T00:05:54.143Z,14.90
2018-06-16T00:08:22.520Z,15.00
2018-06-16T00:10:50.985Z,15.00
2018-06-16T00:13:19.352Z,14.90
2018-06-16T00:15:47.784Z,14.90
2018-06-16T00:18:16.181Z,14.90
2018-06-16T00:20:44.590Z,14.90
2018-06-16T00:23:12.965Z,14.90
2018-06-16T00:25:41.397Z,14.80
2018-06-16T00:28:09.920Z,14.90
2018-06-16T00:30:38.323Z,14.80
2018-06-16T00:33:06.968Z,14.70
2018-06-16T00:35:35.424Z,14.70
2018-06-16T00:38:03.853Z,14.70
2018-06-16T00:40:32.241Z,14.70
2018-06-16T00:43:00.637Z,14.80
2018-06-16T00:45:29.045Z,14.80
2018-06-16T00:47:57.548Z,14.70
2018-06-16T00:50:25.970Z,14.60
2018-06-16T00:52:54.601Z,14.50
2018-06-16T00:55:23.013Z,14.40
2018-06-16T00:57:51.726Z,14.40
2018-06-16T01:00:20.929Z,14.40
2018-06-16T01:02:49.607Z,14.50
2018-06-16T01:05:18.016Z,14.70
2018-06-16T01:07:46.411Z,14.90
2018-06-16T01:10:14.808Z,14.80
2018-06-16T01:12:43.236Z,14.70
2018-06-16T01:15:11.652Z,14.70
2018-06-16T01:17:40.027Z,14.80
2018-06-16T01:20:08.420Z,14.90
2018-06-16T01:22:36.824Z,14.90
2018-06-16T01:25:05.596Z,15.00
2018-06-16T01:27:34.056Z,15.00
2018-06-16T01:30:02.465Z,15.00
2018-06-16T01:32:30.952Z,15.00
2018-06-16T01:34:59.354Z,15.00
2018-06-16T01:37:27.737Z,15.20
2018-06-16T01:39:56.084Z,15.30
2018-06-16T01:42:24.495Z,15.40
2018-06-16T01:44:52.870Z,15.30
2018-06-16T01:47:21.284Z,15.30
2018-06-16T01:52:17.751Z,15.30
2018-06-16T01:54:46.140Z,15.40
2018-06-16T01:57:14.540Z,15.50
2018-06-16T01:59:43.024Z,15.50
2018-06-16T02:02:11.404Z,15.50
2018-06-16T02:04:39.787Z,15.50
2018-06-16T02:07:08.184Z,15.50
2018-06-16T02:09:36.572Z,15.50
2018-06-16T02:12:05.304Z,15.60
2018-06-16T02:14:33.706Z,15.70
2018-06-16T02:17:02.120Z,15.80
2018-06-16T02:19:30.557Z,15.80
2018-06-16T02:21:58.965Z,15.80
2018-06-16T02:24:27.351Z,15.80
2018-06-16T02:26:55.740Z,15.90
2018-06-16T02:29:24.116Z,15.90
2018-06-16T02:31:52.481Z,15.90
2018-06-16T02:34:20.873Z,15.80
2018-06-16T02:36:49.248Z,15.90
2018-06-16T02:39:17.646Z,15.90
2018-06-16T02:41:46.034Z,16.00
2018-06-16T02:44:14.416Z,15.90
2018-06-16T02:46:42.792Z,15.90
2018-06-16T02:49:11.217Z,15.90
2018-06-16T02:51:39.725Z,15.80
2018-06-16T02:54:08.084Z,15.80
2018-06-16T02:56:36.480Z,15.70
2018-06-16T03:01:32.981Z,15.60
2018-06-16T03:04:01.421Z,15.60
2018-06-16T03:06:29.791Z,15.60
2018-06-16T03:08:58.197Z,15.60
2018-06-16T03:11:26.572Z,15.60
2018-06-16T03:13:54.959Z,15.60
2018-06-16T03:16:23.356Z,15.50
2018-06-16T03:18:51.733Z,15.50
2018-06-16T03:21:20.192Z,15.40
2018-06-16T03:23:48.711Z,15.40
2018-06-16T03:26:17.144Z,15.40
2018-06-16T03:28:45.557Z,15.30
2018-06-16T03:31:13.928Z,15.40
2018-06-16T03:33:42.310Z,15.30
2018-06-16T03:36:10.712Z,15.40
2018-06-16T03:38:39.113Z,15.30
2018-06-16T03:41:07.492Z,15.40
2018-06-16T03:43:35.895Z,15.30
2018-06-16T03:46:04.281Z,15.40
2018-06-16T03:48:32.648Z,15.30
2018-06-16T03:51:01.088Z,15.30
2018-06-16T03:53:29.474Z,15.40
2018-06-16T03:58:26.052Z,15.40
2018-06-16T04:00:54.441Z,15.40
2018-06-16T04:03:22.835Z,15.40
2018-06-16T04:05:51.308Z,15.40
2018-06-16T04:08:19.704Z,15.40
2018-06-16T04:10:48.088Z,15.40
2018-06-16T04:13:16.479Z,15.40
2018-06-16T04:15:44.878Z,15.40
2018-06-16T04:18:13.262Z,15.40
2018-06-16T04:20:41.653Z,15.50
2018-06-16T04:23:10.056Z,15.40
2018-06-16T04:25:38.432Z,15.50
2018-06-16T04:28:06.828Z,15.40
2018-06-16T04:30:35.246Z,15.40
2018-06-16T04:33:03.664Z,15.40
2018-06-16T04:35:32.072Z,15.40
2018-06-16T04:38:00.448Z,15.40
2018-06-16T04:40:28.837Z,15.40
2018-06-16T04:42:57.252Z,15.40
2018-06-16T04:45:25.707Z,15.40
2018-06-16T04:47:54.031Z,15.50
2018-06-16T04:50:22.428Z,15.50
2018-06-16T04:52:51.512Z,15.50
2018-06-16T04:55:20.406Z,15.60
2018-06-16T04:57:48.792Z,15.70
2018-06-16T05:00:17.248Z,15.80
2018-06-16T05:02:45.640Z,15.90
2018-06-16T05:05:14.017Z,16.00
2018-06-16T05:07:42.418Z,16.10
2018-06-16T05:10:10.792Z,16.30
2018-06-16T05:12:39.201Z,16.30
2018-06-16T05:15:07.944Z,16.30
2018-06-16T05:17:36.323Z,16.30
2018-06-16T05:20:04.821Z,16.30
2018-06-16T05:22:33.219Z,16.30
2018-06-16T05:25:01.618Z,16.20
2018-06-16T05:27:30.057Z,16.30
2018-06-16T05:29:58.444Z,16.20
2018-06-16T05:32:26.829Z,16.20
2018-06-16T05:34:55.258Z,16.40
2018-06-16T05:37:23.637Z,16.60
2018-06-16T05:39:52.505Z,17.10
2018-06-16T05:42:20.933Z,17.70
2018-06-16T05:44:49.324Z,18.00
2018-06-16T05:47:17.721Z,18.00
2018-06-16T05:49:46.138Z,17.80
2018-06-16T05:52:14.585Z,17.70
2018-06-16T05:54:42.996Z,17.60
2018-06-16T05:57:11.433Z,17.50
2018-06-16T05:59:39.841Z,17.60
2018-06-16T06:02:08.245Z,17.60
2018-06-16T06:04:36.844Z,17.60
2018-06-16T06:07:05.300Z,17.60
2018-06-16T06:09:33.751Z,17.50
2018-06-16T06:12:02.165Z,17.60
2018-06-16T06:14:30.558Z,17.70
2018-06-16T06:16:58.955Z,17.80
2018-06-16T06:19:27.356Z,18.00
2018-06-16T06:21:55.729Z,18.10
2018-06-16T06:24:24.161Z,18.30
2018-06-16T06:26:52.564Z,18.40
2018-06-16T06:29:20.995Z,18.30
2018-06-16T06:31:49.410Z,18.30
2018-06-16T06:34:17.825Z,18.50
2018-06-16T06:36:46.332Z,18.50
2018-06-16T06:39:14.729Z,18.30
2018-06-16T06:41:43.142Z,18.20
2018-06-16T06:44:11.652Z,18.20
2018-06-16T06:46:40.077Z,18.30
2018-06-16T06:49:08.539Z,18.50
2018-06-16T06:51:37.181Z,18.70
2018-06-16T06:54:05.706Z,18.90
2018-06-16T06:56:34.091Z,18.90
2018-06-16T06:59:02.553Z,18.90
2018-06-16T07:01:31.080Z,19.00
2018-06-16T07:03:59.507Z,19.30
2018-06-16T07:06:27.887Z,19.50
2018-06-16T07:08:56.288Z,19.40
2018-06-16T07:11:24.704Z,19.40
2018-06-16T07:16:21.284Z,19.90
2018-06-16T07:18:49.756Z,19.70
2018-06-16T07:21:18.395Z,19.70
2018-06-16T07:23:46.777Z,19.70
2018-06-16T07:26:15.336Z,19.90
2018-06-16T07:28:43.785Z,20.00
2018-06-16T07:31:12.192Z,20.10
2018-06-16T07:33:40.779Z,19.90
2018-06-16T07:36:09.249Z,19.90
2018-06-16T07:38:37.605Z,20.10
2018-06-16T07:41:06.116Z,20.20
2018-06-16T07:43:34.565Z,20.10
2018-06-16T07:46:02.973Z,20.20
2018-06-16T07:48:31.373Z,20.30
2018-06-16T07:50:59.813Z,20.50
2018-06-16T07:53:28.199Z,20.70
2018-06-16T07:55:56.713Z,20.80
2018-06-16T07:58:25.175Z,20.80
2018-06-16T08:00:53.557Z,20.70
2018-06-16T08:03:22.843Z,20.60
2018-06-16T08:05:51.272Z,20.40
2018-06-16T08:08:19.655Z,20.40
2018-06-16T08:10:48.097Z,20.40
2018-06-16T08:13:16.548Z,20.40
2018-06-16T08:15:44.951Z,20.60
2018-06-16T08:18:13.362Z,20.60
2018-06-16T08:20:41.789Z,20.60
2018-06-16T08:23:10.160Z,20.90
2018-06-16T08:25:38.566Z,20.80
2018-06-16T08:28:06.994Z,20.90
2018-06-16T08:30:35.411Z,21.10
2018-06-16T08:33:03.828Z,21.00
2018-06-16T08:35:32.236Z,21.40
2018-06-16T08:38:00.644Z,22.10
2018-06-16T08:40:29.112Z,22.60
2018-06-16T08:42:57.572Z,23.00
2018-06-16T08:45:26.029Z,22.60
2018-06-16T08:47:54.444Z,22.40
2018-06-16T08:50:22.840Z,22.30
2018-06-16T08:52:51.727Z,22.70
2018-06-16T08:55:20.137Z,23.00
2018-06-16T08:57:48.530Z,22.70
2018-06-16T09:00:16.908Z,22.60
2018-06-16T09:02:45.312Z,22.60
2018-06-16T09:05:13.724Z,22.40
2018-06-16T09:07:42.201Z,22.70
2018-06-16T09:10:10.729Z,22.90
2018-06-16T09:12:39.186Z,22.80
2018-06-16T09:15:07.599Z,23.30
2018-06-16T09:17:36.024Z,23.40
2018-06-16T09:20:04.500Z,23.60
2018-06-16T09:22:32.991Z,24.70
2018-06-16T09:25:01.370Z,25.40
2018-06-16T09:27:29.784Z,26.80
2018-06-16T09:29:58.236Z,27.40
2018-06-16T09:32:26.629Z,27.50
2018-06-16T09:34:55.113Z,28.10
2018-06-16T09:37:23.493Z,28.50
2018-06-16T09:39:51.997Z,27.90
2018-06-16T09:42:20.548Z,28.10
2018-06-16T09:44:48.978Z,28.40
2018-06-16T09:47:17.613Z,28.30
2018-06-16T09:49:46.027Z,28.10
2018-06-16T09:52:14.460Z,27.70
2018-06-16T09:54:42.989Z,28.20
2018-06-16T09:57:11.670Z,27.30
2018-06-16T09:59:40.066Z,28.00
2018-06-16T10:02:08.489Z,27.70
2018-06-16T10:04:36.893Z,27.70
2018-06-16T10:09:33.513Z,27.20
2018-06-16T10:12:01.953Z,27.10
2018-06-16T10:14:30.386Z,28.30
2018-06-16T10:16:58.785Z,29.20
2018-06-16T10:19:27.472Z,30.10
2018-06-16T10:21:55.990Z,30.00
2018-06-16T10:24:24.416Z,30.40
2018-06-16T10:26:52.828Z,30.70
2018-06-16T10:29:21.217Z,29.30
2018-06-16T10:31:49.760Z,27.60
2018-06-16T10:36:46.356Z,26.70
2018-06-16T10:39:14.865Z,25.60
2018-06-16T10:41:43.316Z,25.00
2018-06-16T10:44:11.758Z,24.70
2018-06-16T10:46:40.144Z,24.40
2018-06-16T10:49:08.557Z,24.10
2018-06-16T10:51:37.055Z,24.00
2018-06-16T10:54:05.592Z,23.90
2018-06-16T10:56:34.023Z,23.60
2018-06-16T10:59:02.465Z,23.50
2018-06-16T11:01:30.878Z,23.50
2018-06-16T11:03:59.293Z,23.80
2018-06-16T11:06:27.721Z,23.90
2018-06-16T11:08:56.216Z,24.00
2018-06-16T11:11:24.832Z,24.20
2018-06-16T11:13:53.227Z,24.00
2018-06-16T11:16:21.736Z,24.60
2018-06-16T11:18:50.166Z,25.30
2018-06-16T11:21:21.920Z,25.90
2018-06-16T11:23:53.472Z,26.70
2018-06-16T11:26:21.921Z,27.10
2018-06-16T11:28:50.397Z,26.10
2018-06-16T11:31:18.896Z,25.60
2018-06-16T11:33:47.320Z,25.40
2018-06-16T11:36:15.733Z,25.30
2018-06-16T11:38:44.136Z,25.20
2018-06-16T11:41:12.616Z,25.10
2018-06-16T11:43:41.036Z,24.80
2018-06-16T11:46:09.781Z,24.50
2018-06-16T11:48:38.277Z,24.40
2018-06-16T11:51:06.670Z,24.70
2018-06-16T11:53:35.064Z,25.70
2018-06-16T11:56:03.550Z,26.20
2018-06-16T11:58:31.968Z,27.20
2018-06-16T12:01:00.374Z,28.00
2018-06-16T12:03:28.807Z,29.10
2018-06-16T12:05:57.196Z,29.90
2018-06-16T12:08:25.626Z,30.50
2018-06-16T12:13:22.369Z,30.80
2018-06-16T12:15:50.805Z,31.10
2018-06-16T12:18:20.024Z,31.40
2018-06-16T12:20:49.100Z,29.20
2018-06-16T12:23:17.493Z,29.20
2018-06-16T12:25:46.057Z,28.20
2018-06-16T12:28:14.505Z,28.50
2018-06-16T12:30:42.933Z,29.00
2018-06-16T12:33:11.385Z,29.50
2018-06-16T12:35:39.800Z,28.20
2018-06-16T12:38:08.356Z,28.50
2018-06-16T12:40:36.753Z,29.30
2018-06-16T12:43:05.555Z,29.60
2018-06-16T12:45:34.140Z,29.00
2018-06-16T12:48:02.703Z,29.20
2018-06-16T12:50:31.276Z,29.30
2018-06-16T12:52:59.728Z,28.70
2018-06-16T12:55:28.134Z,27.90
2018-06-16T12:57:56.857Z,27.70
2018-06-16T13:00:25.273Z,27.80
2018-06-16T13:02:53.877Z,28.70
2018-06-16T13:05:22.384Z,28.20
2018-06-16T13:07:50.892Z,28.00
2018-06-16T13:10:19.363Z,27.50
2018-06-16T13:12:47.802Z,27.30
2018-06-16T13:15:22.933Z,27.30
2018-06-16T13:17:51.349Z,26.90
2018-06-16T13:20:19.771Z,27.40
2018-06-16T13:22:48.276Z,27.60
2018-06-16T13:25:16.772Z,27.40
2018-06-16T13:27:45.133Z,27.30
2018-06-16T13:30:13.536Z,26.90
2018-06-16T13:32:41.981Z,26.70
2018-06-16T13:35:10.404Z,26.60
2018-06-16T13:37:38.829Z,26.50
2018-06-16T13:40:07.314Z,26.40
2018-06-16T13:42:35.761Z,26.20
2018-06-16T13:47:32.360Z,26.40
2018-06-16T13:50:00.809Z,26.10
2018-06-16T13:52:29.461Z,26.10
2018-06-16T13:57:26.055Z,26.60
2018-06-16T13:59:54.452Z,27.20
2018-06-16T14:02:22.857Z,27.30
2018-06-16T14:04:51.374Z,27.30
2018-06-16T14:09:47.993Z,27.10
2018-06-16T14:12:16.444Z,27.40
2018-06-16T14:14:44.886Z,26.90
2018-06-16T14:17:13.448Z,26.20
2018-06-16T14:19:42.047Z,25.70
2018-06-16T14:22:10.464Z,25.40
2018-06-16T14:24:38.922Z,25.30
2018-06-16T14:27:07.353Z,25.20
2018-06-16T14:29:36.010Z,25.30
2018-06-16T14:32:04.804Z,25.20
2018-06-16T14:34:33.284Z,25.40
2018-06-16T14:37:01.952Z,25.20
2018-06-16T14:39:30.380Z,25.30
2018-06-16T14:41:58.777Z,25.20
2018-06-16T14:44:27.553Z,25.00
2018-06-16T14:46:55.999Z,25.10
2018-06-16T14:49:24.409Z,25.00
2018-06-16T14:51:52.877Z,24.70
2018-06-16T14:54:21.300Z,24.40
2018-06-16T14:56:49.777Z,24.50
2018-06-16T14:59:18.208Z,24.40
2018-06-16T15:01:46.734Z,24.30
2018-06-16T15:04:15.196Z,24.30
2018-06-16T15:06:43.795Z,24.20
2018-06-16T15:09:12.377Z,24.20
2018-06-16T15:11:40.889Z,24.30
2018-06-16T15:14:09.347Z,24.20
2018-06-16T15:16:37.921Z,24.20
2018-06-16T15:19:06.664Z,24.20
2018-06-16T15:21:35.202Z,24.20
2018-06-16T15:24:03.745Z,23.90
2018-06-16T15:26:32.164Z,23.70
2018-06-16T15:29:00.700Z,23.60
2018-06-16T15:31:29.137Z,23.40
2018-06-16T15:33:57.561Z,23.30
2018-06-16T15:36:26.333Z,23.20
2018-06-16T15:38:54.905Z,23.10
2018-06-16T15:41:23.377Z,23.20
2018-06-16T15:43:52.500Z,23.20
2018-06-16T15:46:21.190Z,23.10
2018-06-16T15:48:49.584Z,22.80
2018-06-16T15:51:18.219Z,22.70
2018-06-16T15:53:46.581Z,22.60
2018-06-16T15:56:15.105Z,22.50
2018-06-16T15:58:43.564Z,22.50
2018-06-16T16:01:11.977Z,22.40
2018-06-16T16:03:40.400Z,22.50
2018-06-16T16:06:08.942Z,22.50
2018-06-16T16:08:37.488Z,22.60
2018-06-16T16:11:06.176Z,22.60
2018-06-16T16:13:34.729Z,22.50
2018-06-16T16:16:03.200Z,22.40
2018-06-16T16:18:31.661Z,22.50
2018-06-16T16:21:00.108Z,22.70
2018-06-16T16:23:28.552Z,22.70
2018-06-16T16:25:56.993Z,22.80
2018-06-16T16:30:53.561Z,23.20
2018-06-16T16:33:21.964Z,23.10
2018-06-16T16:35:50.381Z,23.10
2018-06-16T16:38:19.052Z,23.20
2018-06-16T16:40:47.594Z,23.10
2018-06-16T16:43:16.109Z,22.90
2018-06-16T16:45:44.554Z,22.70
2018-06-16T16:48:13.177Z,22.70
2018-06-16T16:50:41.697Z,22.60
2018-06-16T16:53:10.144Z,22.50
2018-06-16T16:55:38.869Z,22.20
2018-06-16T16:58:07.266Z,22.30
2018-06-16T17:00:35.728Z,22.50
2018-06-16T17:03:04.344Z,22.70
2018-06-16T17:05:32.801Z,22.70
2018-06-16T17:08:01.251Z,23.00
2018-06-16T17:10:29.672Z,23.20
2018-06-16T17:12:58.245Z,23.50
2018-06-16T17:15:26.853Z,23.70
2018-06-16T17:17:55.268Z,23.70
2018-06-16T17:22:52.006Z,23.80
2018-06-16T17:25:20.419Z,23.30
2018-06-16T17:30:17.264Z,23.20
2018-06-16T17:32:45.676Z,23.00
2018-06-16T17:35:14.257Z,23.00
2018-06-16T17:37:42.959Z,22.70
2018-06-16T17:40:11.424Z,22.60
2018-06-16T17:42:39.850Z,22.50
2018-06-16T17:45:08.512Z,22.30
2018-06-16T17:47:37.108Z,22.40
2018-06-16T17:50:05.789Z,22.50
2018-06-16T17:52:34.241Z,22.50
2018-06-16T17:55:02.648Z,22.80
2018-06-16T17:57:31.425Z,22.90
2018-06-16T17:59:59.904Z,22.80
2018-06-16T18:02:28.389Z,22.60
2018-06-16T18:04:57.084Z,22.40
2018-06-16T18:07:26.474Z,22.30
2018-06-16T18:09:54.923Z,22.00
2018-06-16T18:12:23.373Z,22.00
2018-06-16T18:14:51.786Z,21.90
2018-06-16T18:17:20.192Z,21.80
2018-06-16T18:19:48.697Z,21.70
2018-06-16T18:22:17.201Z,21.70
2018-06-16T18:24:45.633Z,21.70
2018-06-16T18:27:14.108Z,21.70
2018-06-16T18:29:46.640Z,21.60
2018-06-16T18:32:15.078Z,21.60
2018-06-16T18:34:43.479Z,21.40
2018-06-16T18:37:11.915Z,21.40
2018-06-16T18:39:40.356Z,21.40
2018-06-16T18:42:09.124Z,21.30
2018-06-16T18:44:38.129Z,21.30
2018-06-16T18:49:34.622Z,21.20
2018-06-16T18:52:03.146Z,21.10
2018-06-16T18:54:31.604Z,21.10
2018-06-16T18:57:00.172Z,21.00
2018-06-16T18:59:28.576Z,21.00
2018-06-16T19:04:25.325Z,20.90
2018-06-16T19:06:53.765Z,20.80
2018-06-16T19:09:22.170Z,20.80
2018-06-16T19:11:50.610Z,20.60
2018-06-16T19:14:19.029Z,20.50
2018-06-16T19:16:47.490Z,20.50
2018-06-16T19:19:15.893Z,20.40
2018-06-16T19:21:44.341Z,20.40
2018-06-16T19:24:12.889Z,20.30
2018-06-16T19:26:41.473Z,20.30
2018-06-16T19:31:38.264Z,20.10
2018-06-16T19:34:06.740Z,20.10
2018-06-16T19:36:35.145Z,20.10
2018-06-16T19:39:03.722Z,20.10
2018-06-16T19:41:32.340Z,20.10
2018-06-16T19:44:00.812Z,20.10
2018-06-16T19:46:29.252Z,20.10
2018-06-16T19:48:57.674Z,20.10
2018-06-16T19:51:26.100Z,20.10
2018-06-16T19:53:54.513Z,20.10
2018-06-16T19:56:23.027Z,20.10
2018-06-16T19:58:51.760Z,20.00
2018-06-16T20:01:20.256Z,19.90
2018-06-16T20:03:48.682Z,19.80
2018-06-16T20:06:17.316Z,19.70
2018-06-16T20:08:45.751Z,19.70
2018-06-16T20:11:14.170Z,19.50
2018-06-16T20:13:42.860Z,19.50
2018-06-16T20:16:11.473Z,19.40
2018-06-16T20:18:39.905Z,19.30
2018-06-16T20:21:08.341Z,19.20
2018-06-16T20:23:36.779Z,19.10
2018-06-16T20:26:05.267Z,19.10
2018-06-16T20:28:33.657Z,19.00
2018-06-16T20:31:02.092Z,18.90
2018-06-16T20:33:30.757Z,18.90
2018-06-16T20:35:59.273Z,18.80
2018-06-16T20:38:27.724Z,18.80
2018-06-16T20:40:56.457Z,18.80
2018-06-16T20:43:24.905Z,18.80
2018-06-16T20:45:53.367Z,18.70
2018-06-16T20:48:21.921Z,18.60
2018-06-16T20:53:18.484Z,18.50
2018-06-16T20:55:46.917Z,18.40
2018-06-16T20:58:15.371Z,18.30
2018-06-16T21:00:43.864Z,18.20
2018-06-16T21:03:12.396Z,18.20
2018-06-16T21:05:40.868Z,18.10
2018-06-16T21:08:09.560Z,18.00
2018-06-16T21:10:38.020Z,17.90
2018-06-16T21:13:06.672Z,17.90
2018-06-16T21:15:35.220Z,17.90
2018-06-16T21:18:03.835Z,17.80
2018-06-16T21:20:32.257Z,17.70
2018-06-16T21:23:00.815Z,17.70
2018-06-16T21:25:29.292Z,17.60
2018-06-16T21:27:57.888Z,17.60
2018-06-16T21:30:26.324Z,17.60
2018-06-16T21:32:54.698Z,17.40
2018-06-16T21:35:23.295Z,17.30
2018-06-16T21:37:51.791Z,17.20
2018-06-16T21:40:20.216Z,17.10
2018-06-16T21:42:48.809Z,17.10
2018-06-16T21:45:17.209Z,17.10
2018-06-16T21:47:45.600Z,17.00
2018-06-16T21:50:14.314Z,16.90
2018-06-16T21:52:42.859Z,17.00
2018-06-16T21:55:11.247Z,16.90
2018-06-16T21:57:39.781Z,17.00
2018-06-16T22:00:11.080Z,16.90
2018-06-16T22:02:39.677Z,16.80
2018-06-16T22:05:08.641Z,16.60
2018-06-16T22:07:37.137Z,16.70
2018-06-16T22:10:06.757Z,16.50
2018-06-16T22:12:35.160Z,16.30
2018-06-16T22:15:03.683Z,16.30
2018-06-16T22:17:32.105Z,16.20
2018-06-16T22:20:00.533Z,16.20
2018-06-16T22:22:29.256Z,16.20
2018-06-16T22:24:57.672Z,16.00
2018-06-16T22:27:26.085Z,16.10
2018-06-16T22:29:54.709Z,16.00
2018-06-16T22:32:23.098Z,16.00
2018-06-16T22:34:52.684Z,15.90
2018-06-16T22:37:21.280Z,15.90
2018-06-16T22:39:49.660Z,15.90
2018-06-16T22:42:18.125Z,16.00
2018-06-16T22:44:46.600Z,16.00
2018-06-16T22:47:14.996Z,16.00
2018-06-16T22:49:43.612Z,15.90
2018-06-16T22:52:12.135Z,15.90
2018-06-16T22:54:40.585Z,15.90
2018-06-16T22:57:09.170Z,15.90
2018-06-16T22:59:37.593Z,15.70
2018-06-16T23:02:05.993Z,15.70
2018-06-16T23:04:34.414Z,15.80
2018-06-16T23:07:02.907Z,15.80
2018-06-16T23:09:31.336Z,15.90
2018-06-16T23:14:27.984Z,16.10
2018-06-16T23:16:56.422Z,16.10
2018-06-16T23:19:25.207Z,16.20
2018-06-16T23:21:53.621Z,16.20
2018-06-16T23:24:22.058Z,16.20
2018-06-16T23:26:50.437Z,16.20
2018-06-16T23:29:18.849Z,16.20
2018-06-16T23:31:47.300Z,16.20
2018-06-16T23:34:15.698Z,16.10
2018-06-16T23:36:44.117Z,16.00
2018-06-16T23:39:13.459Z,16.00
2018-06-16T23:41:42.580Z,16.00
2018-06-16T23:44:10.965Z,15.90
2018-06-16T23:46:39.348Z,15.90
2018-06-16T23:49:07.954Z,15.80
2018-06-16T23:51:36.374Z,15.70
2018-06-16T23:54:05.073Z,15.60
2018-06-16T23:56:33.481Z,15.60
2018-06-16T23:59:02.046Z,15.60
